sensor_id;sensor_type;location;lat;lon;timestamp;temperature;humidity
4695;DHT22;2361;49.540;8.390;2023-07-13T00:01:55;22.20;77.30
4695;DHT22;2361;49.540;8.390;2023-07-13T00:04:24;22.20;77.80
4695;DHT22;2361;49.540;8.390;2023-07-13T00:06:56;22.10;78.10
4695;DHT22;2361;49.540;8.390;2023-07-13T00:09:23;22.10;78.30
4695;DHT22;2361;49.540;8.390;2023-07-13T00:11:52;22.00;78.70
4695;DHT22;2361;49.540;8.390;2023-07-13T00:14:21;21.90;78.90
4695;DHT22;2361;49.540;8.390;2023-07-13T00:16:49;21.90;79.00
4695;DHT22;2361;49.540;8.390;2023-07-13T00:19:16;21.90;79.20
4695;DHT22;2361;49.540;8.390;2023-07-13T00:21:44;21.80;79.30
4695;DHT22;2361;49.540;8.390;2023-07-13T00:24:13;21.70;79.20
4695;DHT22;2361;49.540;8.390;2023-07-13T00:26:45;21.70;79.30
4695;DHT22;2361;49.540;8.390;2023-07-13T00:29:13;21.70;79.80
4695;DHT22;2361;49.540;8.390;2023-07-13T00:31:43;21.70;79.80
4695;DHT22;2361;49.540;8.390;2023-07-13T00:34:11;21.70;80.00
4695;DHT22;2361;49.540;8.390;2023-07-13T00:36:38;21.60;80.40
4695;DHT22;2361;49.540;8.390;2023-07-13T00:39:06;21.60;80.50
4695;DHT22;2361;49.540;8.390;2023-07-13T00:41:33;21.60;80.90
4695;DHT22;2361;49.540;8.390;2023-07-13T00:44:00;21.60;81.20
4695;DHT22;2361;49.540;8.390;2023-07-13T00:46:30;21.60;81.30
4695;DHT22;2361;49.540;8.390;2023-07-13T00:49:03;21.50;81.50
4695;DHT22;2361;49.540;8.390;2023-07-13T00:51:47;21.50;81.50
4695;DHT22;2361;49.540;8.390;2023-07-13T00:54:21;21.50;82.00
4695;DHT22;2361;49.540;8.390;2023-07-13T00:56:54;21.50;82.10
4695;DHT22;2361;49.540;8.390;2023-07-13T00:59:24;21.40;82.30
4695;DHT22;2361;49.540;8.390;2023-07-13T01:01:52;21.40;82.20
4695;DHT22;2361;49.540;8.390;2023-07-13T01:04:19;21.30;82.70
4695;DHT22;2361;49.540;8.390;2023-07-13T01:06:46;21.30;83.40
4695;DHT22;2361;49.540;8.390;2023-07-13T01:09:14;21.20;82.80
4695;DHT22;2361;49.540;8.390;2023-07-13T01:11:42;21.20;83.10
4695;DHT22;2361;49.540;8.390;2023-07-13T01:14:11;21.20;83.40
4695;DHT22;2361;49.540;8.390;2023-07-13T01:16:41;21.30;83.40
4695;DHT22;2361;49.540;8.390;2023-07-13T01:22:05;21.30;83.60
4695;DHT22;2361;49.540;8.390;2023-07-13T01:24:36;21.30;83.80
4695;DHT22;2361;49.540;8.390;2023-07-13T01:27:04;21.20;83.50
4695;DHT22;2361;49.540;8.390;2023-07-13T01:29:35;21.20;83.20
4695;DHT22;2361;49.540;8.390;2023-07-13T01:32:11;21.20;83.20
4695;DHT22;2361;49.540;8.390;2023-07-13T01:34:41;21.10;83.30
4695;DHT22;2361;49.540;8.390;2023-07-13T01:37:12;21.10;83.60
4695;DHT22;2361;49.540;8.390;2023-07-13T01:39:39;21.10;83.40
4695;DHT22;2361;49.540;8.390;2023-07-13T01:42:06;21.00;83.70
4695;DHT22;2361;49.540;8.390;2023-07-13T01:44:33;20.90;83.80
4695;DHT22;2361;49.540;8.390;2023-07-13T01:47:01;20.90;83.90
4695;DHT22;2361;49.540;8.390;2023-07-13T01:49:29;20.80;84.20
4695;DHT22;2361;49.540;8.390;2023-07-13T01:51:56;20.80;84.50
4695;DHT22;2361;49.540;8.390;2023-07-13T01:54:23;20.70;84.60
4695;DHT22;2361;49.540;8.390;2023-07-13T01:56:50;20.70;84.90
4695;DHT22;2361;49.540;8.390;2023-07-13T01:59:17;20.60;84.90
4695;DHT22;2361;49.540;8.390;2023-07-13T02:01:44;20.60;85.10
4695;DHT22;2361;49.540;8.390;2023-07-13T02:04:11;20.60;85.30
4695;DHT22;2361;49.540;8.390;2023-07-13T02:06:38;20.50;85.40
4695;DHT22;2361;49.540;8.390;2023-07-13T02:09:05;20.50;85.90
4695;DHT22;2361;49.540;8.390;2023-07-13T02:11:33;20.40;86.00
4695;DHT22;2361;49.540;8.390;2023-07-13T02:14:01;20.30;86.30
4695;DHT22;2361;49.540;8.390;2023-07-13T02:16:30;20.30;86.80
4695;DHT22;2361;49.540;8.390;2023-07-13T02:18:57;20.30;86.90
4695;DHT22;2361;49.540;8.390;2023-07-13T02:21:24;20.20;87.10
4695;DHT22;2361;49.540;8.390;2023-07-13T02:23:52;20.20;87.30
4695;DHT22;2361;49.540;8.390;2023-07-13T02:26:19;20.10;87.60
4695;DHT22;2361;49.540;8.390;2023-07-13T02:28:46;20.10;87.90
4695;DHT22;2361;49.540;8.390;2023-07-13T02:31:15;20.20;88.20
4695;DHT22;2361;49.540;8.390;2023-07-13T02:33:42;20.10;88.30
4695;DHT22;2361;49.540;8.390;2023-07-13T02:36:11;20.10;88.70
4695;DHT22;2361;49.540;8.390;2023-07-13T02:38:39;20.00;88.80
4695;DHT22;2361;49.540;8.390;2023-07-13T02:41:07;20.00;89.20
4695;DHT22;2361;49.540;8.390;2023-07-13T02:43:36;20.00;89.50
4695;DHT22;2361;49.540;8.390;2023-07-13T02:46:04;19.90;89.50
4695;DHT22;2361;49.540;8.390;2023-07-13T02:48:34;19.90;89.90
4695;DHT22;2361;49.540;8.390;2023-07-13T02:51:02;19.90;90.10
4695;DHT22;2361;49.540;8.390;2023-07-13T02:53:29;19.90;90.10
4695;DHT22;2361;49.540;8.390;2023-07-13T02:55:57;19.80;90.20
4695;DHT22;2361;49.540;8.390;2023-07-13T02:58:24;19.80;90.60
4695;DHT22;2361;49.540;8.390;2023-07-13T03:00:51;19.70;90.70
4695;DHT22;2361;49.540;8.390;2023-07-13T03:03:18;19.60;90.80
4695;DHT22;2361;49.540;8.390;2023-07-13T03:05:45;19.60;91.00
4695;DHT22;2361;49.540;8.390;2023-07-13T03:08:17;19.60;91.10
4695;DHT22;2361;49.540;8.390;2023-07-13T03:10:45;19.50;91.40
4695;DHT22;2361;49.540;8.390;2023-07-13T03:13:12;19.50;91.60
4695;DHT22;2361;49.540;8.390;2023-07-13T03:15:39;19.50;91.60
4695;DHT22;2361;49.540;8.390;2023-07-13T03:18:06;19.50;91.70
4695;DHT22;2361;49.540;8.390;2023-07-13T03:20:34;19.50;91.90
4695;DHT22;2361;49.540;8.390;2023-07-13T03:23:01;19.40;91.90
4695;DHT22;2361;49.540;8.390;2023-07-13T03:25:31;19.40;92.10
4695;DHT22;2361;49.540;8.390;2023-07-13T03:27:58;19.50;92.20
4695;DHT22;2361;49.540;8.390;2023-07-13T03:30:25;19.50;92.30
4695;DHT22;2361;49.540;8.390;2023-07-13T03:32:52;19.50;92.30
4695;DHT22;2361;49.540;8.390;2023-07-13T03:35:19;19.50;92.40
4695;DHT22;2361;49.540;8.390;2023-07-13T03:37:46;19.60;92.60
4695;DHT22;2361;49.540;8.390;2023-07-13T03:40:13;19.60;92.80
4695;DHT22;2361;49.540;8.390;2023-07-13T03:42:40;19.70;93.00
4695;DHT22;2361;49.540;8.390;2023-07-13T03:45:08;19.70;93.00
4695;DHT22;2361;49.540;8.390;2023-07-13T03:47:35;19.70;93.30
4695;DHT22;2361;49.540;8.390;2023-07-13T03:50:02;19.70;93.50
4695;DHT22;2361;49.540;8.390;2023-07-13T03:52:29;19.70;93.60
4695;DHT22;2361;49.540;8.390;2023-07-13T03:54:56;19.70;93.80
4695;DHT22;2361;49.540;8.390;2023-07-13T03:57:24;19.80;93.90
4695;DHT22;2361;49.540;8.390;2023-07-13T03:59:51;19.80;93.90
4695;DHT22;2361;49.540;8.390;2023-07-13T04:02:18;19.90;93.90
4695;DHT22;2361;49.540;8.390;2023-07-13T04:04:45;19.90;93.80
4695;DHT22;2361;49.540;8.390;2023-07-13T04:07:12;19.90;94.00
4695;DHT22;2361;49.540;8.390;2023-07-13T04:09:39;19.80;94.00
4695;DHT22;2361;49.540;8.390;2023-07-13T04:12:07;19.90;93.80
4695;DHT22;2361;49.540;8.390;2023-07-13T04:14:34;19.90;93.70
4695;DHT22;2361;49.540;8.390;2023-07-13T04:17:01;19.90;93.60
4695;DHT22;2361;49.540;8.390;2023-07-13T04:19:28;20.00;93.70
4695;DHT22;2361;49.540;8.390;2023-07-13T04:21:55;20.20;93.70
4695;DHT22;2361;49.540;8.390;2023-07-13T04:24:22;20.30;93.30
4695;DHT22;2361;49.540;8.390;2023-07-13T04:26:49;20.40;93.40
4695;DHT22;2361;49.540;8.390;2023-07-13T04:29:16;20.60;93.30
4695;DHT22;2361;49.540;8.390;2023-07-13T04:31:43;20.90;92.90
4695;DHT22;2361;49.540;8.390;2023-07-13T04:34:10;21.10;92.70
4695;DHT22;2361;49.540;8.390;2023-07-13T04:36:37;21.40;91.90
4695;DHT22;2361;49.540;8.390;2023-07-13T04:39:04;21.50;91.60
4695;DHT22;2361;49.540;8.390;2023-07-13T04:41:31;21.70;91.30
4695;DHT22;2361;49.540;8.390;2023-07-13T04:43:58;21.90;91.10
4695;DHT22;2361;49.540;8.390;2023-07-13T04:46:25;21.90;90.50
4695;DHT22;2361;49.540;8.390;2023-07-13T04:48:52;21.80;90.40
4695;DHT22;2361;49.540;8.390;2023-07-13T04:51:20;21.60;90.60
4695;DHT22;2361;49.540;8.390;2023-07-13T04:53:47;21.50;90.90
4695;DHT22;2361;49.540;8.390;2023-07-13T04:56:14;21.50;91.40
4695;DHT22;2361;49.540;8.390;2023-07-13T04:58:41;21.50;91.30
4695;DHT22;2361;49.540;8.390;2023-07-13T05:01:09;21.60;91.10
4695;DHT22;2361;49.540;8.390;2023-07-13T05:03:37;21.80;91.10
4695;DHT22;2361;49.540;8.390;2023-07-13T05:06:06;22.00;91.00
4695;DHT22;2361;49.540;8.390;2023-07-13T05:08:36;22.30;90.60
4695;DHT22;2361;49.540;8.390;2023-07-13T05:11:04;22.70;90.10
4695;DHT22;2361;49.540;8.390;2023-07-13T05:13:32;23.00;88.60
4695;DHT22;2361;49.540;8.390;2023-07-13T05:16:02;23.00;88.10
4695;DHT22;2361;49.540;8.390;2023-07-13T05:18:30;23.00;88.00
4695;DHT22;2361;49.540;8.390;2023-07-13T05:20:59;22.90;87.60
4695;DHT22;2361;49.540;8.390;2023-07-13T05:23:28;23.00;87.80
4695;DHT22;2361;49.540;8.390;2023-07-13T05:25:55;23.00;87.70
4695;DHT22;2361;49.540;8.390;2023-07-13T05:28:23;23.20;87.60
4695;DHT22;2361;49.540;8.390;2023-07-13T05:30:50;23.40;87.30
4695;DHT22;2361;49.540;8.390;2023-07-13T05:33:17;23.40;86.40
4695;DHT22;2361;49.540;8.390;2023-07-13T05:35:44;23.50;86.20
4695;DHT22;2361;49.540;8.390;2023-07-13T05:38:11;23.50;86.20
4695;DHT22;2361;49.540;8.390;2023-07-13T05:40:42;23.40;86.80
4695;DHT22;2361;49.540;8.390;2023-07-13T05:43:09;23.50;86.70
4695;DHT22;2361;49.540;8.390;2023-07-13T05:45:37;23.70;86.10
4695;DHT22;2361;49.540;8.390;2023-07-13T05:48:04;23.90;85.20
4695;DHT22;2361;49.540;8.390;2023-07-13T05:50:31;24.00;85.00
4695;DHT22;2361;49.540;8.390;2023-07-13T05:52:59;24.10;84.60
4695;DHT22;2361;49.540;8.390;2023-07-13T05:55:26;24.00;84.70
4695;DHT22;2361;49.540;8.390;2023-07-13T05:57:53;24.10;84.80
4695;DHT22;2361;49.540;8.390;2023-07-13T06:00:20;24.30;85.00
4695;DHT22;2361;49.540;8.390;2023-07-13T06:02:47;24.70;84.60
4695;DHT22;2361;49.540;8.390;2023-07-13T06:05:14;25.20;83.10
4695;DHT22;2361;49.540;8.390;2023-07-13T06:07:42;25.40;81.90
4695;DHT22;2361;49.540;8.390;2023-07-13T06:10:09;25.80;80.90
4695;DHT22;2361;49.540;8.390;2023-07-13T06:12:36;26.20;79.60
4695;DHT22;2361;49.540;8.390;2023-07-13T06:15:03;26.40;78.80
4695;DHT22;2361;49.540;8.390;2023-07-13T06:17:31;26.60;78.70
4695;DHT22;2361;49.540;8.390;2023-07-13T06:19:58;26.90;77.80
4695;DHT22;2361;49.540;8.390;2023-07-13T06:22:25;27.10;77.20
4695;DHT22;2361;49.540;8.390;2023-07-13T06:24:52;27.10;77.10
4695;DHT22;2361;49.540;8.390;2023-07-13T06:27:19;27.30;77.00
4695;DHT22;2361;49.540;8.390;2023-07-13T06:29:46;27.50;76.30
4695;DHT22;2361;49.540;8.390;2023-07-13T06:32:13;27.90;75.20
4695;DHT22;2361;49.540;8.390;2023-07-13T06:34:40;28.30;73.20
4695;DHT22;2361;49.540;8.390;2023-07-13T06:37:09;28.80;71.80
4695;DHT22;2361;49.540;8.390;2023-07-13T06:39:36;29.30;70.70
4695;DHT22;2361;49.540;8.390;2023-07-13T06:42:05;29.70;69.60
4695;DHT22;2361;49.540;8.390;2023-07-13T06:44:32;30.50;68.60
4695;DHT22;2361;49.540;8.390;2023-07-13T06:46:59;31.00;67.10
4695;DHT22;2361;49.540;8.390;2023-07-13T06:49:26;31.70;65.50
4695;DHT22;2361;49.540;8.390;2023-07-13T06:51:53;31.90;64.80
4695;DHT22;2361;49.540;8.390;2023-07-13T06:54:21;32.00;63.90
4695;DHT22;2361;49.540;8.390;2023-07-13T06:56:48;32.30;62.80
4695;DHT22;2361;49.540;8.390;2023-07-13T06:59:15;32.90;61.00
4695;DHT22;2361;49.540;8.390;2023-07-13T07:01:42;33.50;60.00
4695;DHT22;2361;49.540;8.390;2023-07-13T07:04:09;34.30;56.70
4695;DHT22;2361;49.540;8.390;2023-07-13T07:06:36;35.00;55.70
4695;DHT22;2361;49.540;8.390;2023-07-13T07:09:03;35.40;55.30
4695;DHT22;2361;49.540;8.390;2023-07-13T07:11:30;36.00;54.00
4695;DHT22;2361;49.540;8.390;2023-07-13T07:13:57;36.60;52.90
4695;DHT22;2361;49.540;8.390;2023-07-13T07:16:25;37.10;51.70
4695;DHT22;2361;49.540;8.390;2023-07-13T07:18:52;37.60;50.80
4695;DHT22;2361;49.540;8.390;2023-07-13T07:21:19;38.00;50.00
4695;DHT22;2361;49.540;8.390;2023-07-13T07:23:46;38.20;49.00
4695;DHT22;2361;49.540;8.390;2023-07-13T07:26:13;38.30;48.10
4695;DHT22;2361;49.540;8.390;2023-07-13T07:28:40;38.30;47.70
4695;DHT22;2361;49.540;8.390;2023-07-13T07:31:11;38.50;47.50
4695;DHT22;2361;49.540;8.390;2023-07-13T07:33:41;38.70;47.10
4695;DHT22;2361;49.540;8.390;2023-07-13T07:36:09;39.00;46.80
4695;DHT22;2361;49.540;8.390;2023-07-13T07:38:41;39.30;45.80
4695;DHT22;2361;49.540;8.390;2023-07-13T07:41:08;39.50;45.70
4695;DHT22;2361;49.540;8.390;2023-07-13T07:43:38;39.70;45.60
4695;DHT22;2361;49.540;8.390;2023-07-13T07:46:05;39.90;44.70
4695;DHT22;2361;49.540;8.390;2023-07-13T07:48:33;39.40;44.70
4695;DHT22;2361;49.540;8.390;2023-07-13T07:51:00;39.00;44.80
4695;DHT22;2361;49.540;8.390;2023-07-13T07:53:27;39.00;45.00
4695;DHT22;2361;49.540;8.390;2023-07-13T07:55:54;39.20;45.30
4695;DHT22;2361;49.540;8.390;2023-07-13T07:58:23;39.60;44.30
4695;DHT22;2361;49.540;8.390;2023-07-13T08:00:53;39.80;43.80
4695;DHT22;2361;49.540;8.390;2023-07-13T08:03:23;39.90;43.50
4695;DHT22;2361;49.540;8.390;2023-07-13T08:05:53;39.40;43.30
4695;DHT22;2361;49.540;8.390;2023-07-13T08:08:24;38.40;44.00
4695;DHT22;2361;49.540;8.390;2023-07-13T08:10:51;37.30;44.90
4695;DHT22;2361;49.540;8.390;2023-07-13T08:13:21;36.20;45.70
4695;DHT22;2361;49.540;8.390;2023-07-13T08:15:48;35.10;46.80
4695;DHT22;2361;49.540;8.390;2023-07-13T08:18:16;34.50;47.50
4695;DHT22;2361;49.540;8.390;2023-07-13T08:20:43;34.80;47.60
4695;DHT22;2361;49.540;8.390;2023-07-13T08:23:11;35.50;46.90
4695;DHT22;2361;49.540;8.390;2023-07-13T08:25:38;36.10;46.60
4695;DHT22;2361;49.540;8.390;2023-07-13T08:28:05;36.70;46.30
4695;DHT22;2361;49.540;8.390;2023-07-13T08:30:32;37.00;45.70
4695;DHT22;2361;49.540;8.390;2023-07-13T08:32:59;37.00;45.40
4695;DHT22;2361;49.540;8.390;2023-07-13T08:35:26;35.70;46.20
4695;DHT22;2361;49.540;8.390;2023-07-13T08:37:53;34.40;47.30
4695;DHT22;2361;49.540;8.390;2023-07-13T08:40:24;33.50;48.40
4695;DHT22;2361;49.540;8.390;2023-07-13T08:42:55;33.40;48.70
4695;DHT22;2361;49.540;8.390;2023-07-13T08:45:52;34.30;48.10
4695;DHT22;2361;49.540;8.390;2023-07-13T08:48:56;35.40;47.00
4695;DHT22;2361;49.540;8.390;2023-07-13T08:54:28;35.90;47.00
4695;DHT22;2361;49.540;8.390;2023-07-13T08:57:00;35.30;47.30
4695;DHT22;2361;49.540;8.390;2023-07-13T08:59:32;34.80;48.10
4695;DHT22;2361;49.540;8.390;2023-07-13T09:05:09;33.20;49.30
4695;DHT22;2361;49.540;8.390;2023-07-13T09:10:43;32.10;50.90
4695;DHT22;2361;49.540;8.390;2023-07-13T09:15:48;31.20;51.20
4695;DHT22;2361;49.540;8.390;2023-07-13T09:18:36;31.00;51.70
4695;DHT22;2361;49.540;8.390;2023-07-13T09:21:10;30.90;51.80
4695;DHT22;2361;49.540;8.390;2023-07-13T09:23:40;30.70;52.00
4695;DHT22;2361;49.540;8.390;2023-07-13T09:26:12;30.70;51.70
4695;DHT22;2361;49.540;8.390;2023-07-13T09:29:19;30.60;51.30
4695;DHT22;2361;49.540;8.390;2023-07-13T09:31:47;30.40;51.50
4695;DHT22;2361;49.540;8.390;2023-07-13T09:34:17;30.30;51.90
4695;DHT22;2361;49.540;8.390;2023-07-13T09:36:44;30.10;51.30
4695;DHT22;2361;49.540;8.390;2023-07-13T09:39:35;29.90;51.50
4695;DHT22;2361;49.540;8.390;2023-07-13T09:45:02;29.90;51.60
4695;DHT22;2361;49.540;8.390;2023-07-13T09:47:32;29.80;51.90
4695;DHT22;2361;49.540;8.390;2023-07-13T09:50:08;29.60;52.00
4695;DHT22;2361;49.540;8.390;2023-07-13T09:52:42;29.40;52.60
4695;DHT22;2361;49.540;8.390;2023-07-13T09:55:38;29.40;52.40
4695;DHT22;2361;49.540;8.390;2023-07-13T09:58:16;29.40;52.20
4695;DHT22;2361;49.540;8.390;2023-07-13T10:01:03;29.60;51.60
4695;DHT22;2361;49.540;8.390;2023-07-13T10:03:35;29.70;51.50
4695;DHT22;2361;49.540;8.390;2023-07-13T10:08:38;29.80;50.60
4695;DHT22;2361;49.540;8.390;2023-07-13T10:11:22;30.20;50.50
4695;DHT22;2361;49.540;8.390;2023-07-13T10:13:56;30.40;50.00
4695;DHT22;2361;49.540;8.390;2023-07-13T10:16:30;30.50;50.10
4695;DHT22;2361;49.540;8.390;2023-07-13T10:19:10;30.60;50.20
4695;DHT22;2361;49.540;8.390;2023-07-13T10:21:47;30.40;50.70
4695;DHT22;2361;49.540;8.390;2023-07-13T10:24:21;30.10;50.80
4695;DHT22;2361;49.540;8.390;2023-07-13T10:27:16;29.80;51.30
4695;DHT22;2361;49.540;8.390;2023-07-13T10:32:24;29.40;51.50
4695;DHT22;2361;49.540;8.390;2023-07-13T10:34:51;29.30;51.80
4695;DHT22;2361;49.540;8.390;2023-07-13T10:37:28;29.30;51.50
4695;DHT22;2361;49.540;8.390;2023-07-13T10:39:57;29.30;51.50
4695;DHT22;2361;49.540;8.390;2023-07-13T10:42:35;29.30;51.30
4695;DHT22;2361;49.540;8.390;2023-07-13T10:45:15;29.20;51.80
4695;DHT22;2361;49.540;8.390;2023-07-13T10:47:44;29.00;51.90
4695;DHT22;2361;49.540;8.390;2023-07-13T10:50:25;28.90;52.40
4695;DHT22;2361;49.540;8.390;2023-07-13T10:52:55;28.80;52.60
4695;DHT22;2361;49.540;8.390;2023-07-13T10:58:42;28.80;51.90
4695;DHT22;2361;49.540;8.390;2023-07-13T11:01:13;28.70;52.20
4695;DHT22;2361;49.540;8.390;2023-07-13T11:03:50;28.70;52.40
4695;DHT22;2361;49.540;8.390;2023-07-13T11:11:46;28.50;52.60
4695;DHT22;2361;49.540;8.390;2023-07-13T11:14:36;28.40;52.90
4695;DHT22;2361;49.540;8.390;2023-07-13T11:20:22;28.60;53.40
4695;DHT22;2361;49.540;8.390;2023-07-13T11:25:43;28.60;52.90
4695;DHT22;2361;49.540;8.390;2023-07-13T11:36:12;28.50;52.90
4695;DHT22;2361;49.540;8.390;2023-07-13T11:41:19;28.60;53.10
4695;DHT22;2361;49.540;8.390;2023-07-13T11:43:54;28.60;52.60
4695;DHT22;2361;49.540;8.390;2023-07-13T11:46:27;28.70;52.70
4695;DHT22;2361;49.540;8.390;2023-07-13T11:48:54;28.60;52.90
4695;DHT22;2361;49.540;8.390;2023-07-13T11:51:25;28.60;53.00
4695;DHT22;2361;49.540;8.390;2023-07-13T11:53:55;28.50;52.70
4695;DHT22;2361;49.540;8.390;2023-07-13T11:56:25;28.30;52.70
4695;DHT22;2361;49.540;8.390;2023-07-13T11:58:54;28.30;52.80
4695;DHT22;2361;49.540;8.390;2023-07-13T12:01:29;28.30;52.60
4695;DHT22;2361;49.540;8.390;2023-07-13T12:04:03;28.30;52.40
4695;DHT22;2361;49.540;8.390;2023-07-13T12:06:35;28.30;52.50
4695;DHT22;2361;49.540;8.390;2023-07-13T12:09:12;28.40;52.70
4695;DHT22;2361;49.540;8.390;2023-07-13T12:11:43;28.40;52.60
4695;DHT22;2361;49.540;8.390;2023-07-13T12:14:16;28.40;52.90
4695;DHT22;2361;49.540;8.390;2023-07-13T12:16:45;28.20;52.90
4695;DHT22;2361;49.540;8.390;2023-07-13T12:19:27;28.20;53.10
4695;DHT22;2361;49.540;8.390;2023-07-13T12:21:58;28.30;52.50
4695;DHT22;2361;49.540;8.390;2023-07-13T12:24:26;28.30;52.50
4695;DHT22;2361;49.540;8.390;2023-07-13T12:27:04;28.30;52.80
4695;DHT22;2361;49.540;8.390;2023-07-13T12:29:32;28.30;53.00
4695;DHT22;2361;49.540;8.390;2023-07-13T12:32:00;28.30;52.80
4695;DHT22;2361;49.540;8.390;2023-07-13T12:34:27;28.20;53.00
4695;DHT22;2361;49.540;8.390;2023-07-13T12:37:08;28.30;53.20
4695;DHT22;2361;49.540;8.390;2023-07-13T12:39:45;28.30;53.10
4695;DHT22;2361;49.540;8.390;2023-07-13T12:42:23;28.20;53.10
4695;DHT22;2361;49.540;8.390;2023-07-13T12:45:25;28.20;53.70
4695;DHT22;2361;49.540;8.390;2023-07-13T12:48:37;28.30;53.70
4695;DHT22;2361;49.540;8.390;2023-07-13T12:51:10;28.40;53.50
4695;DHT22;2361;49.540;8.390;2023-07-13T12:53:41;28.50;53.40
4695;DHT22;2361;49.540;8.390;2023-07-13T12:56:21;28.50;53.60
4695;DHT22;2361;49.540;8.390;2023-07-13T12:58:50;28.50;53.50
4695;DHT22;2361;49.540;8.390;2023-07-13T13:01:28;28.40;53.10
4695;DHT22;2361;49.540;8.390;2023-07-13T13:03:56;28.40;53.30
4695;DHT22;2361;49.540;8.390;2023-07-13T13:06:26;28.40;53.60
4695;DHT22;2361;49.540;8.390;2023-07-13T13:08:56;28.30;54.00
4695;DHT22;2361;49.540;8.390;2023-07-13T13:11:29;28.20;54.30
4695;DHT22;2361;49.540;8.390;2023-07-13T13:13:57;28.30;54.50
4695;DHT22;2361;49.540;8.390;2023-07-13T13:16:33;28.30;53.80
4695;DHT22;2361;49.540;8.390;2023-07-13T13:19:17;28.30;53.40
4695;DHT22;2361;49.540;8.390;2023-07-13T13:21:48;28.20;53.20
4695;DHT22;2361;49.540;8.390;2023-07-13T13:24:21;28.10;54.20
4695;DHT22;2361;49.540;8.390;2023-07-13T13:26:51;28.00;53.70
4695;DHT22;2361;49.540;8.390;2023-07-13T13:29:21;28.00;54.00
4695;DHT22;2361;49.540;8.390;2023-07-13T13:31:56;28.00;54.20
4695;DHT22;2361;49.540;8.390;2023-07-13T13:34:24;28.00;54.30
4695;DHT22;2361;49.540;8.390;2023-07-13T13:36:53;28.00;54.60
4695;DHT22;2361;49.540;8.390;2023-07-13T13:39:29;28.00;54.90
4695;DHT22;2361;49.540;8.390;2023-07-13T13:42:01;28.00;54.90
4695;DHT22;2361;49.540;8.390;2023-07-13T13:44:28;27.90;55.10
4695;DHT22;2361;49.540;8.390;2023-07-13T13:46:56;27.90;55.30
4695;DHT22;2361;49.540;8.390;2023-07-13T13:49:26;28.00;55.30
4695;DHT22;2361;49.540;8.390;2023-07-13T13:51:54;27.90;55.30
4695;DHT22;2361;49.540;8.390;2023-07-13T13:54:23;28.00;54.50
4695;DHT22;2361;49.540;8.390;2023-07-13T13:56:52;28.00;54.20
4695;DHT22;2361;49.540;8.390;2023-07-13T13:59:19;28.00;54.40
4695;DHT22;2361;49.540;8.390;2023-07-13T14:01:47;28.00;54.60
4695;DHT22;2361;49.540;8.390;2023-07-13T14:04:18;28.00;54.40
4695;DHT22;2361;49.540;8.390;2023-07-13T14:06:47;27.90;54.50
4695;DHT22;2361;49.540;8.390;2023-07-13T14:09:17;27.90;54.10
4695;DHT22;2361;49.540;8.390;2023-07-13T14:11:47;27.90;54.20
4695;DHT22;2361;49.540;8.390;2023-07-13T14:14:22;28.00;54.30
4695;DHT22;2361;49.540;8.390;2023-07-13T14:16:51;28.00;54.50
4695;DHT22;2361;49.540;8.390;2023-07-13T14:19:20;28.10;54.40
4695;DHT22;2361;49.540;8.390;2023-07-13T14:21:47;28.10;54.20
4695;DHT22;2361;49.540;8.390;2023-07-13T14:24:16;28.20;54.10
4695;DHT22;2361;49.540;8.390;2023-07-13T14:26:43;28.10;54.00
4695;DHT22;2361;49.540;8.390;2023-07-13T14:29:15;28.20;54.30
4695;DHT22;2361;49.540;8.390;2023-07-13T14:31:46;28.10;54.50
4695;DHT22;2361;49.540;8.390;2023-07-13T14:34:13;28.10;54.70
4695;DHT22;2361;49.540;8.390;2023-07-13T14:36:43;28.10;54.30
4695;DHT22;2361;49.540;8.390;2023-07-13T14:39:20;28.10;54.30
4695;DHT22;2361;49.540;8.390;2023-07-13T14:41:54;28.10;54.70
4695;DHT22;2361;49.540;8.390;2023-07-13T14:44:25;28.00;54.80
4695;DHT22;2361;49.540;8.390;2023-07-13T14:46:57;28.00;54.20
4695;DHT22;2361;49.540;8.390;2023-07-13T14:49:41;27.90;53.90
4695;DHT22;2361;49.540;8.390;2023-07-13T14:52:18;27.80;53.80
4695;DHT22;2361;49.540;8.390;2023-07-13T14:54:47;27.80;53.90
4695;DHT22;2361;49.540;8.390;2023-07-13T14:57:16;27.90;53.70
4695;DHT22;2361;49.540;8.390;2023-07-13T14:59:48;27.90;53.80
4695;DHT22;2361;49.540;8.390;2023-07-13T15:02:16;27.90;53.40
4695;DHT22;2361;49.540;8.390;2023-07-13T15:04:46;28.00;53.40
4695;DHT22;2361;49.540;8.390;2023-07-13T15:07:13;28.00;53.40
4695;DHT22;2361;49.540;8.390;2023-07-13T15:09:42;27.90;53.20
4695;DHT22;2361;49.540;8.390;2023-07-13T15:12:09;27.90;53.30
4695;DHT22;2361;49.540;8.390;2023-07-13T15:14:36;27.80;54.30
4695;DHT22;2361;49.540;8.390;2023-07-13T15:17:04;27.70;55.00
4695;DHT22;2361;49.540;8.390;2023-07-13T15:19:35;27.70;55.50
4695;DHT22;2361;49.540;8.390;2023-07-13T15:22:03;27.50;55.60
4695;DHT22;2361;49.540;8.390;2023-07-13T15:24:31;27.50;55.90
4695;DHT22;2361;49.540;8.390;2023-07-13T15:26:58;27.40;55.70
4695;DHT22;2361;49.540;8.390;2023-07-13T15:29:25;27.30;55.80
4695;DHT22;2361;49.540;8.390;2023-07-13T15:31:52;27.30;56.00
4695;DHT22;2361;49.540;8.390;2023-07-13T15:34:23;27.30;55.70
4695;DHT22;2361;49.540;8.390;2023-07-13T15:36:52;27.30;55.60
4695;DHT22;2361;49.540;8.390;2023-07-13T15:39:19;27.30;55.50
4695;DHT22;2361;49.540;8.390;2023-07-13T15:41:47;27.40;55.70
4695;DHT22;2361;49.540;8.390;2023-07-13T15:44:29;27.40;56.00
4695;DHT22;2361;49.540;8.390;2023-07-13T15:46:58;27.40;55.70
4695;DHT22;2361;49.540;8.390;2023-07-13T15:49:27;27.40;55.50
4695;DHT22;2361;49.540;8.390;2023-07-13T15:51:54;27.40;55.20
4695;DHT22;2361;49.540;8.390;2023-07-13T15:54:22;27.40;55.10
4695;DHT22;2361;49.540;8.390;2023-07-13T15:56:55;27.40;55.30
4695;DHT22;2361;49.540;8.390;2023-07-13T15:59:27;27.30;54.90
4695;DHT22;2361;49.540;8.390;2023-07-13T16:01:54;27.40;55.30
4695;DHT22;2361;49.540;8.390;2023-07-13T16:04:21;27.40;55.50
4695;DHT22;2361;49.540;8.390;2023-07-13T16:06:49;27.50;55.50
4695;DHT22;2361;49.540;8.390;2023-07-13T16:09:22;27.50;55.60
4695;DHT22;2361;49.540;8.390;2023-07-13T16:11:50;27.50;55.10
4695;DHT22;2361;49.540;8.390;2023-07-13T16:14:18;27.50;55.30
4695;DHT22;2361;49.540;8.390;2023-07-13T16:16:47;27.50;55.50
4695;DHT22;2361;49.540;8.390;2023-07-13T16:19:15;27.40;55.30
4695;DHT22;2361;49.540;8.390;2023-07-13T16:21:45;27.40;55.30
4695;DHT22;2361;49.540;8.390;2023-07-13T16:24:17;27.40;55.50
4695;DHT22;2361;49.540;8.390;2023-07-13T16:26:48;27.40;55.10
4695;DHT22;2361;49.540;8.390;2023-07-13T16:29:29;27.30;54.90
4695;DHT22;2361;49.540;8.390;2023-07-13T16:32:01;27.20;54.90
4695;DHT22;2361;49.540;8.390;2023-07-13T16:34:31;27.10;55.00
4695;DHT22;2361;49.540;8.390;2023-07-13T16:37:01;27.00;55.20
4695;DHT22;2361;49.540;8.390;2023-07-13T16:39:31;27.10;55.40
4695;DHT22;2361;49.540;8.390;2023-07-13T16:41:59;27.10;55.00
4695;DHT22;2361;49.540;8.390;2023-07-13T16:44:26;27.00;55.10
4695;DHT22;2361;49.540;8.390;2023-07-13T16:46:55;27.00;55.20
4695;DHT22;2361;49.540;8.390;2023-07-13T16:49:32;26.90;54.90
4695;DHT22;2361;49.540;8.390;2023-07-13T16:52:02;26.90;55.00
4695;DHT22;2361;49.540;8.390;2023-07-13T16:54:35;26.90;55.00
4695;DHT22;2361;49.540;8.390;2023-07-13T16:57:23;26.90;54.90
4695;DHT22;2361;49.540;8.390;2023-07-13T16:59:55;27.00;55.00
4695;DHT22;2361;49.540;8.390;2023-07-13T17:02:29;27.00;55.90
4695;DHT22;2361;49.540;8.390;2023-07-13T17:04:58;27.00;55.20
4695;DHT22;2361;49.540;8.390;2023-07-13T17:07:25;27.00;55.00
4695;DHT22;2361;49.540;8.390;2023-07-13T17:09:52;26.90;55.10